Time,TemperatureF,DewpointF,PressureIn,WindDirection,WindDirectionDegrees,WindSpeedMPH,WindSpeedGustMPH,Humidity,HourlyPrecipIn,Conditions,Clouds,dailyrainin,SolarRadiationWatts/m^2,SoftwareType,DateUTC
2013-03-01 00:01:00,25.9,17.1,30.08,ENE,60,7.0,7.0,69,0.00,,,0.00,0,Wunderground v.1.15,2013-03-01 06:01:00,
2013-03-01 00:11:00,25.6,16.8,30.09,NE,42,7.0,7.0,69,0.00,,,0.00,0,Wunderground v.1.15,2013-03-01 06:11:00,
2013-03-01 00:16:00,25.4,16.6,30.09,NE,40,5.0,7.0,69,0.00,,,0.00,0,Wunderground v.1.15,2013-03-01 06:16:00,
2013-03-01 00:26:00,25.3,16.5,30.09,NE,39,5.0,5.0,69,0.00,,,0.00,0,Wunderground v.1.15,2013-03-01 06:26:00,
2013-03-01 00:36:00,25.1,16.4,30.09,NE,35,5.0,6.0,69,0.00,,,0.00,0,Wunderground v.1.15,2013-03-01 06:36:00,
2013-03-01 00:46:00,25.0,16.3,30.10,NE,46,3.0,7.0,69,0.00,,,0.00,0,Wunderground v.1.15,2013-03-01 06:46:00,
2013-03-01 00:56:00,24.9,16.2,30.10,NE,46,7.0,9.0,69,0.00,,,0.00,0,Wunderground v.1.15,2013-03-01 06:56:00,
2013-03-01 01:01:00,24.8,16.1,30.11,NE,55,4.0,4.0,69,0.00,,,0.00,0,Wunderground v.1.15,2013-03-01 07:01:00,
2013-03-01 01:06:00,24.7,16.0,30.10,ENE,77,3.0,4.0,69,0.00,,,0.00,0,Wunderground v.1.15,2013-03-01 07:06:00,
2013-03-01 01:16:00,24.5,16.1,30.11,ENE,58,4.0,4.0,70,0.00,,,0.00,0,Wunderground v.1.15,2013-03-01 07:16:00,
2013-03-01 01:26:00,24.6,16.5,30.10,East,95,9.0,9.0,71,0.00,,,0.00,0,Wunderground v.1.15,2013-03-01 07:26:00,
2013-03-01 01:36:00,24.5,16.4,30.11,ENE,66,4.0,10.0,71,0.00,,,0.00,0,Wunderground v.1.15,2013-03-01 07:36:00,
2013-03-01 01:46:00,24.4,16.0,30.12,NE,56,4.0,4.0,70,0.00,,,0.00,0,Wunderground v.1.15,2013-03-01 07:46:00,
2013-03-01 01:56:00,24.3,15.9,30.11,ENE,69,1.0,2.0,70,0.00,,,0.00,0,Wunderground v.1.15,2013-03-01 07:56:00,
2013-03-01 02:06:00,24.1,15.7,30.11,ENE,59,6.0,11.0,70,0.00,,,0.00,0,Wunderground v.1.15,2013-03-01 08:06:00,
2013-03-01 02:16:00,23.8,15.4,30.12,NE,35,2.0,5.0,70,0.00,,,0.00,0,Wunderground v.1.15,2013-03-01 08:16:00,
2013-03-01 02:21:00,23.7,15.0,30.11,East,85,5.0,5.0,69,0.00,,,0.00,0,Wunderground v.1.15,2013-03-01 08:21:00,
2013-03-01 02:31:00,23.7,15.3,30.11,ENE,76,5.0,5.0,70,0.00,,,0.00,0,Wunderground v.1.15,2013-03-01 08:31:00,
2013-03-01 02:41:00,23.6,14.9,30.12,NE,43,3.0,3.0,69,0.00,,,0.00,0,Wunderground v.1.15,2013-03-01 08:41:00,
2013-03-01 02:51:00,23.4,14.7,30.11,NNE,32,0.0,0.0,69,0.00,,,0.00,0,Wunderground v.1.15,2013-03-01 08:51:00,
2013-03-01 03:01:00,23.3,14.6,30.11,NE,43,3.0,3.0,69,0.00,,,0.00,0,Wunderground v.1.15,2013-03-01 09:01:00,
2013-03-01 03:06:00,23.3,14.6,30.11,NNE,20,5.0,5.0,69,0.00,,,0.00,0,Wunderground v.1.15,2013-03-01 09:06:00,
2013-03-01 03:16:00,23.3,14.6,30.11,North,0,5.0,5.0,69,0.00,,,0.00,0,Wunderground v.1.15,2013-03-01 09:16:00,
2013-03-01 03:26:00,23.2,14.5,30.11,North,3,1.0,4.0,69,0.00,,,0.00,0,Wunderground v.1.15,2013-03-01 09:26:00,
2013-03-01 03:36:00,23.2,14.9,30.12,North,0,6.0,6.0,70,0.00,,,0.00,0,Wunderground v.1.15,2013-03-01 09:36:00,
2013-03-01 03:46:00,23.0,14.7,30.11,North,2,4.0,5.0,70,0.00,,,0.00,0,Wunderground v.1.15,2013-03-01 09:46:00,
2013-03-01 03:56:00,23.0,14.7,30.11,North,0,4.0,4.0,70,0.00,,,0.00,0,Wunderground v.1.15,2013-03-01 09:56:00,
2013-03-01 04:06:00,23.0,15.0,30.11,NNW,345,3.0,4.0,71,0.00,,,0.00,0,Wunderground v.1.15,2013-03-01 10:06:00,
2013-03-01 04:16:00,23.0,15.0,30.11,North,350,5.0,5.0,71,0.00,,,0.00,0,Wunderground v.1.15,2013-03-01 10:16:00,
2013-03-01 04:21:00,23.0,15.0,30.12,North,358,3.0,3.0,71,0.00,,,0.00,0,Wunderground v.1.15,2013-03-01 10:21:00,
2013-03-01 04:31:00,22.9,14.9,30.12,North,358,2.0,2.0,71,0.00,,,0.00,0,Wunderground v.1.15,2013-03-01 10:31:00,
2013-03-01 04:41:00,22.9,15.2,30.12,North,357,3.0,3.0,72,0.00,,,0.00,0,Wunderground v.1.15,2013-03-01 10:41:00,
2013-03-01 04:51:00,22.8,15.1,30.12,North,356,4.0,4.0,72,0.00,,,0.00,0,Wunderground v.1.15,2013-03-01 10:51:00,
2013-03-01 05:01:00,22.7,15.3,30.12,North,357,2.0,2.0,73,0.00,,,0.00,0,Wunderground v.1.15,2013-03-01 11:01:00,
2013-03-01 05:11:00,22.5,15.8,30.12,North,0,2.0,2.0,75,0.00,,,0.00,0,Wunderground v.1.15,2013-03-01 11:11:00,
2013-03-01 05:21:00,22.5,15.8,30.13,North,359,4.0,4.0,75,0.00,,,0.00,0,Wunderground v.1.15,2013-03-01 11:21:00,
2013-03-01 05:31:00,22.4,15.7,30.13,North,0,5.0,5.0,75,0.00,,,0.00,0,Wunderground v.1.15,2013-03-01 11:31:00,
2013-03-01 05:41:00,22.4,15.7,30.13,North,0,4.0,4.0,75,0.00,,,0.00,0,Wunderground v.1.15,2013-03-01 11:41:00,
2013-03-01 05:51:00,22.5,16.1,30.14,North,4,4.0,4.0,76,0.00,,,0.00,0,Wunderground v.1.15,2013-03-01 11:51:00,
2013-03-01 05:56:00,22.5,16.1,30.13,North,0,2.0,4.0,76,0.00,,,0.00,0,Wunderground v.1.15,2013-03-01 11:56:00,
2013-03-01 06:06:00,22.5,16.1,30.13,NNW,348,4.0,4.0,76,0.00,,,0.00,0,Wunderground v.1.15,2013-03-01 12:06:00,
2013-03-01 06:16:00,22.2,16.4,30.14,North,350,5.0,8.0,78,0.00,,,0.00,0,Wunderground v.1.15,2013-03-01 12:16:00,
2013-03-01 06:26:00,22.2,16.4,30.14,North,359,4.0,4.0,78,0.00,,,0.00,0,Wunderground v.1.15,2013-03-01 12:26:00,
2013-03-01 06:36:00,22.2,16.4,30.14,NNW,348,2.0,5.0,78,0.00,,,0.00,0,Wunderground v.1.15,2013-03-01 12:36:00,
2013-03-01 06:41:00,22.2,16.4,30.15,North,355,5.0,5.0,78,0.00,,,0.00,0,Wunderground v.1.15,2013-03-01 12:41:00,
2013-03-01 06:51:00,22.2,16.4,30.14,North,357,4.0,4.0,78,0.00,,,0.00,0,Wunderground v.1.15,2013-03-01 12:51:00,
2013-03-01 07:01:00,22.3,16.8,30.15,NNW,346,2.0,2.0,79,0.00,,,0.00,0,Wunderground v.1.15,2013-03-01 13:01:00,
2013-03-01 07:11:00,22.5,16.7,30.15,North,354,5.0,5.0,78,0.00,,,0.00,0,Wunderground v.1.15,2013-03-01 13:11:00,
2013-03-01 07:21:00,22.6,16.8,30.15,North,0,3.0,3.0,78,0.00,,,0.00,0,Wunderground v.1.15,2013-03-01 13:21:00,
2013-03-01 07:31:00,22.7,16.9,30.15,North,359,3.0,3.0,78,0.00,,,0.00,0,Wunderground v.1.15,2013-03-01 13:31:00,
2013-03-01 07:41:00,23.1,17.3,30.15,North,358,3.0,3.0,78,0.00,,,0.00,0,Wunderground v.1.15,2013-03-01 13:41:00,
2013-03-01 07:51:00,23.6,17.4,30.16,North,2,4.0,4.0,77,0.00,,,0.00,0,Wunderground v.1.15,2013-03-01 13:51:00,
2013-03-01 07:56:00,23.9,17.4,30.15,North,359,4.0,4.0,76,0.00,,,0.00,0,Wunderground v.1.15,2013-03-01 13:56:00,
2013-03-01 08:06:00,24.3,17.8,30.16,North,5,3.0,4.0,76,0.00,,,0.00,0,Wunderground v.1.15,2013-03-01 14:06:00,
2013-03-01 08:16:00,25.0,17.9,30.16,North,4,6.0,6.0,74,0.00,,,0.00,0,Wunderground v.1.15,2013-03-01 14:16:00,
2013-03-01 08:26:00,25.1,17.7,30.16,North,3,6.0,7.0,73,0.00,,,0.00,0,Wunderground v.1.15,2013-03-01 14:26:00,
2013-03-01 08:36:00,25.3,17.9,30.15,North,8,3.0,6.0,73,0.00,,,0.00,0,Wunderground v.1.15,2013-03-01 14:36:00,
2013-03-01 08:46:00,25.5,17.7,30.16,North,9,8.0,8.0,72,0.00,,,0.00,0,Wunderground v.1.15,2013-03-01 14:46:00,
2013-03-01 08:51:00,25.8,18.0,30.16,NE,35,5.0,5.0,72,0.00,,,0.00,0,Wunderground v.1.15,2013-03-01 14:51:00,
2013-03-01 09:01:00,26.2,18.1,30.16,North,2,4.0,4.0,71,0.00,,,0.00,0,Wunderground v.1.15,2013-03-01 15:01:00,
2013-03-01 09:06:00,26.4,18.3,30.16,North,0,5.0,5.0,71,0.00,,,0.00,0,Wunderground v.1.15,2013-03-01 15:06:00,
2013-03-01 09:16:00,26.9,18.7,30.16,NNE,15,4.0,4.0,71,0.00,,,0.00,0,Wunderground v.1.15,2013-03-01 15:16:00,
2013-03-01 09:21:00,27.0,17.5,30.16,NNE,21,4.0,4.0,67,0.00,,,0.00,0,Wunderground v.1.15,2013-03-01 15:21:00,
2013-03-01 09:26:00,26.7,16.5,30.17,NNE,31,2.0,4.0,65,0.00,,,0.00,0,Wunderground v.1.15,2013-03-01 15:26:00,
2013-03-01 09:36:00,27.0,16.8,30.16,North,349,4.0,7.0,65,0.00,,,0.00,0,Wunderground v.1.15,2013-03-01 15:36:00,
2013-03-01 09:46:00,27.2,17.3,30.17,North,358,7.0,7.0,66,0.00,,,0.00,0,Wunderground v.1.15,2013-03-01 15:46:00,
2013-03-01 09:51:00,27.0,16.8,30.17,North,6,8.0,8.0,65,0.00,,,0.00,0,Wunderground v.1.15,2013-03-01 15:51:00,
2013-03-01 10:01:00,26.8,17.0,30.17,NNE,24,7.0,7.0,66,0.00,,,0.00,0,Wunderground v.1.15,2013-03-01 16:01:00,
2013-03-01 10:06:00,26.9,17.0,30.17,North,8,8.0,8.0,66,0.00,,,0.00,0,Wunderground v.1.15,2013-03-01 16:06:00,
2013-03-01 10:16:00,27.4,17.2,30.19,NNE,13,6.0,6.0,65,0.00,,,0.00,0,Wunderground v.1.15,2013-03-01 16:16:00,
2013-03-01 10:26:00,27.5,16.9,30.18,NE,37,5.0,9.0,64,0.00,,,0.00,0,Wunderground v.1.15,2013-03-01 16:26:00,
2013-03-01 10:36:00,27.6,17.0,30.18,NNE,24,4.0,4.0,64,0.00,,,0.00,0,Wunderground v.1.15,2013-03-01 16:36:00,
2013-03-01 10:46:00,27.6,16.6,30.18,NE,52,8.0,8.0,63,0.00,,,0.00,0,Wunderground v.1.15,2013-03-01 16:46:00,
2013-03-01 10:56:00,27.8,17.6,30.18,North,358,6.0,6.0,65,0.00,,,0.00,0,Wunderground v.1.15,2013-03-01 16:56:00,
2013-03-01 11:06:00,28.3,16.9,30.18,NNE,12,8.0,8.0,62,0.00,,,0.00,0,Wunderground v.1.15,2013-03-01 17:06:00,
2013-03-01 11:16:00,29.3,16.7,30.18,North,9,6.0,6.0,59,0.00,,,0.00,0,Wunderground v.1.15,2013-03-01 17:16:00,
2013-03-01 11:26:00,30.3,17.7,30.19,NNE,22,5.0,6.0,59,0.00,,,0.00,0,Wunderground v.1.15,2013-03-01 17:26:00,
2013-03-01 11:36:00,29.8,17.6,30.19,NNE,23,5.0,5.0,60,0.00,,,0.00,0,Wunderground v.1.15,2013-03-01 17:36:00,
2013-03-01 11:46:00,29.8,17.2,30.19,NE,43,5.0,7.0,59,0.00,,,0.00,0,Wunderground v.1.15,2013-03-01 17:46:00,
2013-03-01 11:56:00,29.9,16.9,30.19,North,356,8.0,8.0,58,0.00,,,0.00,0,Wunderground v.1.15,2013-03-01 17:56:00,
2013-03-01 12:06:00,30.2,17.6,30.18,North,7,4.0,5.0,59,0.00,,,0.00,0,Wunderground v.1.15,2013-03-01 18:06:00,
2013-03-01 12:16:00,30.9,17.4,30.18,North,1,6.0,6.0,57,0.00,,,0.00,0,Wunderground v.1.15,2013-03-01 18:16:00,
2013-03-01 12:21:00,30.7,17.3,30.19,NNE,29,5.0,5.0,57,0.00,,,0.00,0,Wunderground v.1.15,2013-03-01 18:21:00,
2013-03-01 12:31:00,30.5,17.1,30.18,North,358,6.0,6.0,57,0.00,,,0.00,0,Wunderground v.1.15,2013-03-01 18:31:00,
2013-03-01 12:41:00,30.2,16.8,30.18,North,1,7.0,7.0,57,0.00,,,0.00,0,Wunderground v.1.15,2013-03-01 18:41:00,
2013-03-01 12:51:00,30.5,17.1,30.18,North,0,6.0,6.0,57,0.00,,,0.00,0,Wunderground v.1.15,2013-03-01 18:51:00,
2013-03-01 13:01:00,31.4,17.1,30.16,NNW,335,4.0,4.0,55,0.00,,,0.00,0,Wunderground v.1.15,2013-03-01 19:01:00,
2013-03-01 13:11:00,30.9,17.0,30.17,North,359,5.0,5.0,56,0.00,,,0.00,0,Wunderground v.1.15,2013-03-01 19:11:00,
2013-03-01 13:16:00,30.2,16.4,30.17,NNE,22,8.0,8.0,56,0.00,,,0.00,0,Wunderground v.1.15,2013-03-01 19:16:00,
2013-03-01 13:26:00,29.5,16.1,30.16,NE,37,5.0,6.0,57,0.00,,,0.00,0,Wunderground v.1.15,2013-03-01 19:26:00,
2013-03-01 13:36:00,29.9,16.5,30.16,NNE,18,5.0,5.0,57,0.00,,,0.00,0,Wunderground v.1.15,2013-03-01 19:36:00,
2013-03-01 13:41:00,30.0,16.2,30.15,NE,45,3.0,3.0,56,0.00,,,0.00,0,Wunderground v.1.15,2013-03-01 19:41:00,
2013-03-01 13:46:00,29.9,16.5,30.15,NE,36,3.0,3.0,57,0.00,,,0.00,0,Wunderground v.1.15,2013-03-01 19:46:00,
2013-03-01 13:56:00,30.2,16.4,30.16,North,2,7.0,7.0,56,0.00,,,0.00,0,Wunderground v.1.15,2013-03-01 19:56:00,
2013-03-01 14:01:00,29.6,16.2,30.16,North,7,7.0,7.0,57,0.00,,,0.00,0,Wunderground v.1.15,2013-03-01 20:01:00,
2013-03-01 14:11:00,29.8,16.4,30.15,NE,47,1.0,1.0,57,0.00,,,0.00,0,Wunderground v.1.15,2013-03-01 20:11:00,
2013-03-01 14:16:00,29.9,16.5,30.15,North,0,0.0,1.0,57,0.00,,,0.00,0,Wunderground v.1.15,2013-03-01 20:16:00,
2013-03-01 14:26:00,29.7,16.3,30.16,North,359,3.0,3.0,57,0.00,,,0.00,0,Wunderground v.1.15,2013-03-01 20:26:00,
2013-03-01 14:36:00,29.6,16.2,30.15,North,3,6.0,6.0,57,0.00,,,0.00,0,Wunderground v.1.15,2013-03-01 20:36:00,
2013-03-01 14:46:00,29.5,16.5,30.15,NNW,348,14.0,14.0,58,0.00,,,0.00,0,Wunderground v.1.15,2013-03-01 20:46:00,
2013-03-01 14:56:00,29.3,15.9,30.15,North,354,4.0,10.0,57,0.00,,,0.00,0,Wunderground v.1.15,2013-03-01 20:56:00,
2013-03-01 15:06:00,29.4,16.4,30.15,North,355,7.0,7.0,58,0.00,,,0.00,0,Wunderground v.1.15,2013-03-01 21:06:00,
2013-03-01 15:11:00,29.6,15.8,30.15,North,1,3.0,3.0,56,0.00,,,0.00,0,Wunderground v.1.15,2013-03-01 21:11:00,
2013-03-01 15:21:00,29.9,16.5,30.15,NNW,346,5.0,5.0,57,0.00,,,0.00,0,Wunderground v.1.15,2013-03-01 21:21:00,
2013-03-01 15:31:00,29.8,16.0,30.15,NE,42,3.0,3.0,56,0.00,,,0.00,0,Wunderground v.1.15,2013-03-01 21:31:00,
2013-03-01 15:41:00,29.8,16.4,30.15,North,350,6.0,6.0,57,0.00,,,0.00,0,Wunderground v.1.15,2013-03-01 21:41:00,
2013-03-01 15:51:00,29.8,16.4,30.16,NNW,344,5.0,5.0,57,0.00,,,0.00,0,Wunderground v.1.15,2013-03-01 21:51:00,
2013-03-01 15:56:00,30.0,16.2,30.16,North,7,8.0,8.0,56,0.00,,,0.00,0,Wunderground v.1.15,2013-03-01 21:56:00,
2013-03-01 16:06:00,29.4,16.0,30.16,NNW,346,8.0,8.0,57,0.00,,,0.00,0,Wunderground v.1.15,2013-03-01 22:06:00,
2013-03-01 16:16:00,28.9,16.0,30.16,North,357,9.0,9.0,58,0.00,,,0.00,0,Wunderground v.1.15,2013-03-01 22:16:00,
2013-03-01 16:26:00,28.4,15.5,30.17,NNW,340,13.0,13.0,58,0.00,,,0.00,0,Wunderground v.1.15,2013-03-01 22:26:00,
2013-03-01 16:36:00,28.0,15.5,30.16,North,354,9.0,9.0,59,0.00,,,0.00,0,Wunderground v.1.15,2013-03-01 22:36:00,
2013-03-01 16:46:00,27.6,15.1,30.17,North,356,7.0,7.0,59,0.00,,,0.00,0,Wunderground v.1.15,2013-03-01 22:46:00,
2013-03-01 16:51:00,27.4,14.9,30.17,North,1,6.0,6.0,59,0.00,,,0.00,0,Wunderground v.1.15,2013-03-01 22:51:00,
2013-03-01 17:01:00,27.1,14.7,30.17,NNW,345,6.0,6.0,59,0.00,,,0.00,0,Wunderground v.1.15,2013-03-01 23:01:00,
2013-03-01 17:06:00,27.0,14.9,30.17,NNW,328,5.0,6.0,60,0.00,,,0.00,0,Wunderground v.1.15,2013-03-01 23:06:00,
2013-03-01 17:16:00,26.7,14.7,30.17,North,355,10.0,10.0,60,0.00,,,0.00,0,Wunderground v.1.15,2013-03-01 23:16:00,
2013-03-01 17:21:00,26.5,14.5,30.17,NNW,346,8.0,8.0,60,0.00,,,0.00,0,Wunderground v.1.15,2013-03-01 23:21:00,
2013-03-01 17:26:00,26.4,14.4,30.17,N/A,-32768,4.0,8.0,60,0.00,,,0.00,0,Wunderground v.1.15,2013-03-01 23:26:00,
2013-03-01 17:36:00,26.0,14.0,30.18,NNW,344,5.0,5.0,60,0.00,,,0.00,0,Wunderground v.1.15,2013-03-01 23:36:00,
2013-03-01 17:46:00,25.6,14.0,30.18,North,359,8.0,8.0,61,0.00,,,0.00,0,Wunderground v.1.15,2013-03-01 23:46:00,
2013-03-01 17:51:00,25.5,13.9,30.18,North,355,4.0,4.0,61,0.00,,,0.00,0,Wunderground v.1.15,2013-03-01 23:51:00,
2013-03-01 18:01:00,25.2,13.6,30.18,North,1,6.0,6.0,61,0.00,,,0.00,0,Wunderground v.1.15,2013-03-02 00:01:00,
2013-03-01 18:06:00,25.0,13.4,30.18,North,357,6.0,6.0,61,0.00,,,0.00,0,Wunderground v.1.15,2013-03-02 00:06:00,
2013-03-01 18:16:00,24.5,13.3,30.18,North,353,4.0,4.0,62,0.00,,,0.00,0,Wunderground v.1.15,2013-03-02 00:16:00,
2013-03-01 18:26:00,23.9,13.1,30.18,NNW,345,3.0,6.0,63,0.00,,,0.00,0,Wunderground v.1.15,2013-03-02 00:26:00,
2013-03-01 18:36:00,23.2,12.8,30.18,NNW,341,5.0,5.0,64,0.00,,,0.00,0,Wunderground v.1.15,2013-03-02 00:36:00,
2013-03-01 18:46:00,22.7,13.0,30.18,NNW,344,4.0,4.0,66,0.00,,,0.00,0,Wunderground v.1.15,2013-03-02 00:46:00,
2013-03-01 18:51:00,22.4,12.8,30.18,NNW,328,3.0,3.0,66,0.00,,,0.00,0,Wunderground v.1.15,2013-03-02 00:51:00,
2013-03-01 19:01:00,21.6,13.0,30.17,NNW,330,3.0,3.0,69,0.00,,,0.00,0,Wunderground v.1.15,2013-03-02 01:01:00,
2013-03-01 19:06:00,21.4,13.1,30.18,NNW,330,2.0,3.0,70,0.00,,,0.00,0,Wunderground v.1.15,2013-03-02 01:06:00,
2013-03-01 19:16:00,20.7,12.8,30.18,NNW,330,3.0,3.0,71,0.00,,,0.00,0,Wunderground v.1.15,2013-03-02 01:16:00,
2013-03-01 19:26:00,19.8,12.2,30.18,NNW,330,3.0,4.0,72,0.00,,,0.00,0,Wunderground v.1.15,2013-03-02 01:26:00,
2013-03-01 19:36:00,19.3,11.7,30.17,NNW,330,2.0,2.0,72,0.00,,,0.00,0,Wunderground v.1.15,2013-03-02 01:36:00,
2013-03-01 19:46:00,19.0,11.5,30.17,NNW,330,2.0,2.0,72,0.00,,,0.00,0,Wunderground v.1.15,2013-03-02 01:46:00,
2013-03-01 19:51:00,18.6,11.1,30.17,NNW,330,2.0,2.0,72,0.00,,,0.00,0,Wunderground v.1.15,2013-03-02 01:51:00,
2013-03-01 20:01:00,17.8,10.9,30.17,NNW,330,3.0,3.0,74,0.00,,,0.00,0,Wunderground v.1.15,2013-03-02 02:01:00,
2013-03-01 20:06:00,17.4,10.5,30.18,NNW,330,2.0,3.0,74,0.00,,,0.00,0,Wunderground v.1.15,2013-03-02 02:06:00,
2013-03-01 20:16:00,16.7,10.7,30.18,NNW,330,1.0,1.0,77,0.00,,,0.00,0,Wunderground v.1.15,2013-03-02 02:16:00,
2013-03-01 20:26:00,16.0,9.5,30.18,NNW,330,3.0,3.0,75,0.00,,,0.00,0,Wunderground v.1.15,2013-03-02 02:26:00,
2013-03-01 20:36:00,15.5,9.6,30.18,NNW,342,5.0,5.0,77,0.00,,,0.00,0,Wunderground v.1.15,2013-03-02 02:36:00,
2013-03-01 20:46:00,15.4,8.9,30.18,NNW,339,5.0,5.0,75,0.00,,,0.00,0,Wunderground v.1.15,2013-03-02 02:46:00,
2013-03-01 20:56:00,15.1,8.6,30.18,NNW,328,3.0,3.0,75,0.00,,,0.00,0,Wunderground v.1.15,2013-03-02 02:56:00,
2013-03-01 21:06:00,15.2,8.7,30.18,NNW,346,4.0,4.0,75,0.00,,,0.00,0,Wunderground v.1.15,2013-03-02 03:06:00,
2013-03-01 21:16:00,15.5,9.0,30.19,NNW,340,3.0,4.0,75,0.00,,,0.00,0,Wunderground v.1.15,2013-03-02 03:16:00,
2013-03-01 21:21:00,15.7,9.2,30.18,NW,324,5.0,5.0,75,0.00,,,0.00,0,Wunderground v.1.15,2013-03-02 03:21:00,
2013-03-01 21:31:00,15.9,9.4,30.19,NNW,328,4.0,4.0,75,0.00,,,0.00,0,Wunderground v.1.15,2013-03-02 03:31:00,
2013-03-01 21:41:00,15.8,9.3,30.19,NNW,329,3.0,3.0,75,0.00,,,0.00,0,Wunderground v.1.15,2013-03-02 03:41:00,
2013-03-01 21:51:00,15.5,8.7,30.19,NNW,338,4.0,4.0,74,0.00,,,0.00,0,Wunderground v.1.15,2013-03-02 03:51:00,
2013-03-01 22:01:00,15.2,8.7,30.19,NNW,338,1.0,1.0,75,0.00,,,0.00,0,Wunderground v.1.15,2013-03-02 04:01:00,
2013-03-01 22:11:00,15.0,8.5,30.19,NNW,338,3.0,3.0,75,0.00,,,0.00,0,Wunderground v.1.15,2013-03-02 04:11:00,
2013-03-01 22:16:00,15.0,8.5,30.18,NNW,338,2.0,3.0,75,0.00,,,0.00,0,Wunderground v.1.15,2013-03-02 04:16:00,
2013-03-01 22:26:00,14.5,8.0,30.18,NNW,338,2.0,3.0,75,0.00,,,0.00,0,Wunderground v.1.15,2013-03-02 04:26:00,
2013-03-01 22:36:00,14.2,8.6,30.19,NNW,338,2.0,2.0,78,0.00,,,0.00,0,Wunderground v.1.15,2013-03-02 04:36:00,
2013-03-01 22:41:00,14.0,8.7,30.18,NNW,338,0.0,0.0,79,0.00,,,0.00,0,Wunderground v.1.15,2013-03-02 04:41:00,
2013-03-01 22:51:00,13.6,8.6,30.18,NNW,338,3.0,3.0,80,0.00,,,0.00,0,Wunderground v.1.15,2013-03-02 04:51:00,
2013-03-01 23:01:00,13.1,7.8,30.19,NNW,338,1.0,1.0,79,0.00,,,0.00,0,Wunderground v.1.15,2013-03-02 05:01:00,
2013-03-01 23:06:00,12.8,7.2,30.19,NNW,338,2.0,2.0,78,0.00,,,0.00,0,Wunderground v.1.15,2013-03-02 05:06:00,
2013-03-01 23:16:00,12.0,6.7,30.19,NNW,338,2.0,3.0,79,0.00,,,0.00,0,Wunderground v.1.15,2013-03-02 05:16:00,
2013-03-01 23:26:00,11.9,6.6,30.19,NNW,338,0.0,2.0,79,0.00,,,0.00,0,Wunderground v.1.15,2013-03-02 05:26:00,
2013-03-01 23:36:00,12.0,7.0,30.20,NNW,338,3.0,3.0,80,0.00,,,0.00,0,Wunderground v.1.15,2013-03-02 05:36:00,
2013-03-01 23:46:00,12.2,6.9,30.19,NNW,338,4.0,4.0,79,0.00,,,0.00,0,Wunderground v.1.15,2013-03-02 05:46:00,
2013-03-01 23:56:00,12.4,7.1,30.20,North,354,1.0,2.0,79,0.00,,,0.00,0,Wunderground v.1.15,2013-03-02 05:56:00,